Terminal Aerodrome Forecast
Issued by NWS Lake Charles, LA

Home | Current Version | Previous Version | Text Only | Print | Product List | Glossary On
Versions: 1 2 3 4 5 6 7 8 9 10 11 12 13
348
FTUS44 KLCH 241724
TAFBPT
TAF
KBPT 241724Z 2418/2518 27009KT P6SM SCT035 BKN120
     FM250000 20005KT P6SM FEW050 BKN200=

USA.gov is the U.S. government's official web portal to all federal, state and local government web resources and services.